createdAt,value
2022-08-01T00:00:44.084Z,94781.28
2022-08-01T00:03:31.054Z,94785.56
2022-08-01T00:06:05.158Z,94790.78
2022-08-01T00:08:52.065Z,94780.50
2022-08-01T00:11:32.090Z,94785.66
2022-08-01T00:14:19.102Z,94780.59
2022-08-01T00:17:12.065Z,94784.88
2022-08-01T00:19:59.093Z,94777.16
2022-08-01T00:22:39.093Z,94778.84
2022-08-01T00:25:33.941Z,94778.00
2022-08-01T00:28:16.055Z,94784.06
2022-08-01T00:31:03.072Z,94778.03
2022-08-01T00:33:36.182Z,94785.00
2022-08-01T00:36:23.072Z,94779.91
2022-08-01T00:38:56.144Z,94779.91
2022-08-01T00:41:43.107Z,94782.63
2022-08-01T00:44:23.093Z,94777.47
2022-08-01T00:47:12.078Z,94781.84
2022-08-01T00:49:52.059Z,94784.44
2022-08-01T00:52:41.088Z,94793.09
2022-08-01T00:55:23.061Z,94787.84
2022-08-01T00:58:10.106Z,94793.88
2022-08-01T01:00:52.384Z,94788.63
2022-08-01T01:03:58.186Z,94798.09
2022-08-01T01:06:40.798Z,94797.28
2022-08-01T01:09:30.052Z,94785.19
2022-08-01T01:12:20.095Z,94790.38
2022-08-01T01:15:19.095Z,94786.88
2022-08-01T01:18:15.089Z,94786.03
2022-08-01T01:20:51.183Z,94797.19
2022-08-01T01:23:56.102Z,94788.63
2022-08-01T01:26:51.099Z,94798.94
2022-08-01T01:29:59.660Z,94793.88
2022-08-01T01:32:47.170Z,94790.41
2022-08-01T01:35:39.094Z,94789.59
2022-08-01T01:38:24.104Z,94789.59
2022-08-01T01:41:19.091Z,94791.34
2022-08-01T01:44:15.095Z,94792.16
2022-08-01T01:47:07.109Z,94790.50
2022-08-01T01:49:41.202Z,94785.34
2022-08-01T01:52:29.109Z,94783.66
2022-08-01T01:55:04.742Z,94789.66
2022-08-01T01:57:52.116Z,94784.56
2022-08-01T02:00:32.113Z,94789.66
2022-08-01T02:03:20.116Z,94787.16
2022-08-01T02:05:54.191Z,94781.91
2022-08-01T02:08:42.133Z,94781.06
2022-08-01T02:11:22.423Z,94784.47
2022-08-01T02:14:11.092Z,94782.78
2022-08-01T02:16:54.123Z,94791.41
2022-08-01T02:19:42.129Z,94782.81
2022-08-01T02:22:27.135Z,94785.41
2022-08-01T02:25:30.117Z,94789.72
2022-08-01T02:28:36.133Z,94784.63
2022-08-01T02:31:35.126Z,94789.72
2022-08-01T02:34:27.233Z,94796.66
2022-08-01T02:37:03.426Z,94795.78
2022-08-01T02:39:53.112Z,94788.97
2022-08-01T02:42:26.231Z,94796.69
2022-08-01T02:45:16.140Z,94799.28
2022-08-01T02:47:51.227Z,94791.53
2022-08-01T02:50:40.143Z,94797.53
2022-08-01T02:53:22.135Z,94803.59
2022-08-01T02:56:29.148Z,94800.09
2022-08-01T02:59:02.261Z,94811.25
2022-08-01T03:01:53.235Z,94811.34
2022-08-01T03:04:31.287Z,94809.66
2022-08-01T03:07:19.144Z,94814.03
2022-08-01T03:09:54.231Z,94812.28
2022-08-01T03:12:42.200Z,94805.47
2022-08-01T03:15:18.245Z,94812.28
2022-08-01T03:18:08.216Z,94812.38
2022-08-01T03:20:49.161Z,94810.78
2022-08-01T03:23:39.167Z,94805.66
2022-08-01T03:26:20.137Z,94811.78
2022-08-01T03:29:18.158Z,94814.38
2022-08-01T03:32:14.189Z,94810.09
2022-08-01T03:35:08.157Z,94813.53
2022-08-01T03:38:20.496Z,94809.28
2022-08-01T03:41:12.229Z,94818.75
2022-08-01T03:44:11.177Z,94820.56
2022-08-01T03:46:58.179Z,94826.56
2022-08-01T03:49:50.162Z,94832.63
2022-08-01T03:52:31.173Z,94829.22
2022-08-01T03:55:20.183Z,94830.88
2022-08-01T03:58:01.171Z,94836.00
2022-08-01T04:00:49.171Z,94838.47
2022-08-01T04:03:23.259Z,94841.91
2022-08-01T04:06:16.180Z,94846.16
2022-08-01T04:09:03.174Z,94844.50
2022-08-01T04:11:57.171Z,94840.19
2022-08-01T04:14:44.180Z,94843.59
2022-08-01T04:17:38.924Z,94847.00
2022-08-01T04:20:25.231Z,94843.59
2022-08-01T04:22:59.320Z,94844.41
2022-08-01T04:25:48.197Z,94847.84
2022-08-01T04:28:22.256Z,94855.50
2022-08-01T04:31:19.196Z,94854.63
2022-08-01T04:34:16.237Z,94853.72
2022-08-01T04:37:10.204Z,94849.34
2022-08-01T04:40:02.212Z,94853.47
2022-08-01T04:42:35.316Z,94845.53
2022-08-01T04:45:23.236Z,94848.81
2022-08-01T04:47:57.308Z,94838.28
2022-08-01T04:50:44.186Z,94839.81
2022-08-01T04:53:33.216Z,94843.78
2022-08-01T04:56:20.199Z,94837.59
2022-08-01T04:59:19.865Z,94834.66
2022-08-01T05:02:07.566Z,94836.94
2022-08-01T05:04:41.283Z,94838.41
2022-08-01T05:07:28.196Z,94835.69
2022-08-01T05:10:02.363Z,94832.97
2022-08-01T05:12:52.243Z,94838.75
2022-08-01T05:15:25.285Z,94837.78
2022-08-01T05:18:12.241Z,94843.78
2022-08-01T05:20:48.394Z,94837.78
2022-08-01T05:23:42.911Z,94841.13
2022-08-01T05:26:18.327Z,94839.25
2022-08-01T05:29:05.219Z,94834.78
2022-08-01T05:31:38.359Z,94832.91
2022-08-01T05:34:25.228Z,94840.59
2022-08-01T05:37:05.237Z,94846.50
2022-08-01T05:39:52.230Z,94843.91
2022-08-01T05:42:25.297Z,94844.78
2022-08-01T05:45:12.234Z,94849.03
2022-08-01T05:47:52.245Z,94854.19
2022-08-01T05:50:40.245Z,94854.97
2022-08-01T05:53:20.229Z,94847.16
2022-08-01T05:56:14.223Z,94855.81
2022-08-01T05:59:08.234Z,94855.69
2022-08-01T06:02:02.363Z,94854.59
2022-08-01T06:04:49.245Z,94850.00
2022-08-01T06:07:29.246Z,94859.09
2022-08-01T06:10:17.266Z,94861.44
2022-08-01T06:12:57.248Z,94862.16
2022-08-01T06:15:44.256Z,94868.78
2022-08-01T06:18:20.349Z,94871.19
2022-08-01T06:21:07.247Z,94883.06
2022-08-01T06:23:49.334Z,94881.03
2022-08-01T06:26:36.251Z,94884.22
2022-08-01T06:29:09.995Z,94892.63
2022-08-01T06:32:04.590Z,94890.72
2022-08-01T06:34:51.241Z,94890.38
2022-08-01T06:37:24.392Z,94891.88
2022-08-01T06:40:16.635Z,94900.19
2022-08-01T06:42:51.409Z,94900.50
2022-08-01T06:45:38.252Z,94905.34
2022-08-01T06:48:18.259Z,94900.75
2022-08-01T06:51:21.279Z,94903.41
2022-08-01T06:54:08.270Z,94898.41
2022-08-01T06:56:41.363Z,94903.69
2022-08-01T06:59:28.260Z,94911.63
2022-08-01T07:02:09.704Z,94916.81
2022-08-01T07:05:03.835Z,94914.38
2022-08-01T07:07:50.263Z,94918.94
2022-08-01T07:10:31.294Z,94924.25
2022-08-01T07:13:19.270Z,94927.97
2022-08-01T07:15:55.585Z,94924.69
2022-08-01T07:18:42.269Z,94932.50
2022-08-01T07:21:16.782Z,94931.75
2022-08-01T07:24:22.292Z,94940.47
2022-08-01T07:27:24.214Z,94941.47
2022-08-01T07:30:13.299Z,94933.91
2022-08-01T07:32:46.383Z,94941.84
2022-08-01T07:35:33.293Z,94944.41
2022-08-01T07:38:08.722Z,94941.84
2022-08-01T07:40:59.353Z,94937.66
2022-08-01T07:43:32.398Z,94946.19
2022-08-01T07:46:19.282Z,94954.00
2022-08-01T07:48:52.448Z,94953.94
2022-08-01T07:51:39.300Z,94951.41
2022-08-01T07:54:12.386Z,94950.56
2022-08-01T07:56:59.295Z,94960.09
2022-08-01T07:59:39.284Z,94947.28
2022-08-01T08:02:26.427Z,94952.44
2022-08-01T08:05:06.360Z,94960.97
2022-08-01T08:08:00.321Z,94956.63
2022-08-01T08:10:47.302Z,94948.81
2022-08-01T08:13:20.990Z,94942.66
2022-08-01T08:16:07.324Z,94949.53
2022-08-01T08:18:40.383Z,94948.47
2022-08-01T08:21:27.326Z,94949.00
2022-08-01T08:24:18.925Z,94951.94
2022-08-01T08:27:07.337Z,94950.78
2022-08-01T08:29:40.449Z,94951.69
2022-08-01T08:32:34.356Z,94952.44
2022-08-01T08:35:40.555Z,94953.78
2022-08-01T08:38:42.324Z,94948.19
2022-08-01T08:41:38.053Z,94948.34
2022-08-01T08:44:33.343Z,94957.72
2022-08-01T08:47:28.339Z,94950.78
2022-08-01T08:50:22.319Z,94958.72
2022-08-01T08:53:18.651Z,94948.69
2022-08-01T08:56:13.347Z,94964.06
2022-08-01T08:59:00.414Z,94958.38
2022-08-01T09:01:42.366Z,94963.88
2022-08-01T09:04:36.342Z,94958.34
2022-08-01T09:07:23.340Z,94964.03
2022-08-01T09:10:04.342Z,94965.53
2022-08-01T09:13:27.353Z,94972.41
2022-08-01T09:16:14.339Z,94976.09
2022-08-01T09:18:53.423Z,94983.81
2022-08-01T09:21:40.414Z,94975.00
2022-08-01T09:24:25.994Z,94984.47
2022-08-01T09:27:28.347Z,94981.22
2022-08-01T09:30:09.362Z,94983.88
2022-08-01T09:33:21.646Z,94975.53
2022-08-01T09:36:08.363Z,94969.81
2022-08-01T09:38:47.888Z,94973.34
2022-08-01T09:41:39.976Z,94975.19
2022-08-01T09:44:13.455Z,94969.22
2022-08-01T09:47:07.576Z,94976.34
2022-08-01T09:49:50.665Z,94979.69
2022-08-01T09:52:41.047Z,94987.41
2022-08-01T09:55:17.455Z,94984.41
2022-08-01T09:58:08.379Z,94987.75
2022-08-01T10:00:45.973Z,94985.09
2022-08-01T10:03:34.512Z,94985.00
2022-08-01T10:06:14.379Z,94987.22
2022-08-01T10:09:08.419Z,94977.25
2022-08-01T10:12:02.400Z,94982.13
2022-08-01T10:14:50.571Z,94978.66
2022-08-01T10:17:50.392Z,94980.06
2022-08-01T10:20:47.378Z,94984.06
2022-08-01T10:23:42.404Z,94992.63
2022-08-01T10:26:40.406Z,94974.41
2022-08-01T10:29:59.228Z,94976.75
2022-08-01T10:32:51.414Z,94977.25
2022-08-01T10:35:47.389Z,94980.69
2022-08-01T10:38:30.414Z,94976.22
2022-08-01T10:41:17.385Z,94978.75
2022-08-01T10:43:52.668Z,94979.22
2022-08-01T10:46:39.405Z,94980.78
2022-08-01T10:49:22.509Z,94983.41
2022-08-01T10:52:09.410Z,94990.75
2022-08-01T10:54:52.896Z,94987.13
2022-08-01T10:57:53.416Z,94987.31
2022-08-01T11:00:29.493Z,94984.53
2022-08-01T11:03:16.423Z,94977.00
2022-08-01T11:05:51.663Z,94976.25
2022-08-01T11:08:45.475Z,94972.16
2022-08-01T11:11:19.565Z,94976.06
2022-08-01T11:14:26.409Z,94976.81
2022-08-01T11:17:54.712Z,94966.69
2022-08-01T11:20:50.416Z,94974.50
2022-08-01T11:23:44.438Z,94983.13
2022-08-01T11:26:46.418Z,94963.16
2022-08-01T11:29:41.467Z,94968.94
2022-08-01T11:33:05.626Z,94970.59
2022-08-01T11:36:18.442Z,94970.41
2022-08-01T11:39:14.133Z,94960.13
2022-08-01T11:42:02.455Z,94960.28
2022-08-01T11:44:56.528Z,94963.91
2022-08-01T11:47:59.421Z,94959.63
2022-08-01T11:50:50.439Z,94958.81
2022-08-01T11:53:45.435Z,94955.94
2022-08-01T11:56:32.447Z,94967.09
2022-08-01T11:59:07.541Z,94961.78
2022-08-01T12:02:02.508Z,94964.22
2022-08-01T12:05:02.460Z,94968.66
2022-08-01T12:07:50.468Z,94967.72
2022-08-01T12:10:33.449Z,94973.66
2022-08-01T12:13:21.443Z,94964.09
2022-08-01T12:15:56.996Z,94962.34
2022-08-01T12:18:50.442Z,94972.00
2022-08-01T12:21:23.576Z,94970.25
2022-08-01T12:24:10.480Z,94978.13
2022-08-01T12:26:49.527Z,94967.91
2022-08-01T12:29:48.484Z,94964.66
2022-08-01T12:32:37.532Z,94964.56
2022-08-01T12:35:32.483Z,94955.06
2022-08-01T12:38:21.686Z,94966.34
2022-08-01T12:41:16.477Z,94962.03
2022-08-01T12:44:10.464Z,94967.25
2022-08-01T12:46:57.476Z,94963.91
2022-08-01T12:49:38.503Z,94960.38
2022-08-01T12:52:32.481Z,94963.91
2022-08-01T12:55:33.685Z,94962.03
2022-08-01T12:58:16.482Z,94963.75
2022-08-01T13:01:11.837Z,94962.03
2022-08-01T13:03:52.483Z,94958.53
2022-08-01T13:06:46.502Z,94952.47
2022-08-01T13:10:05.490Z,94955.81
2022-08-01T13:13:07.469Z,94942.53
2022-08-01T13:15:55.158Z,94947.66
2022-08-01T13:18:43.472Z,94945.63
2022-08-01T13:21:54.229Z,94944.88
2022-08-01T13:24:56.500Z,94951.59
2022-08-01T13:27:52.991Z,94948.91
2022-08-01T13:30:47.524Z,94955.69
2022-08-01T13:33:55.325Z,94959.78
2022-08-01T13:36:54.512Z,94958.75
2022-08-01T13:39:49.505Z,94955.31
2022-08-01T13:42:36.495Z,94952.72
2022-08-01T13:45:14.624Z,94961.91
2022-08-01T13:48:12.195Z,94964.72
2022-08-01T13:50:57.414Z,94963.03
2022-08-01T13:53:46.533Z,94965.81
2022-08-01T13:56:28.518Z,94969.34
2022-08-01T13:59:08.511Z,94966.84
2022-08-01T14:01:49.621Z,94976.41
2022-08-01T14:04:29.523Z,94976.13
2022-08-01T14:07:14.539Z,94977.91
2022-08-01T14:10:17.606Z,94972.72
2022-08-01T14:12:56.815Z,94974.66
2022-08-01T14:15:38.893Z,94976.31
2022-08-01T14:18:26.530Z,94981.63
2022-08-01T14:21:07.524Z,94982.53
2022-08-01T14:23:54.524Z,94980.03
2022-08-01T14:26:34.533Z,94993.03
2022-08-01T14:30:00.230Z,94989.00
2022-08-01T14:32:44.548Z,94990.97
2022-08-01T14:36:01.872Z,94996.31
2022-08-01T14:38:52.556Z,95004.22
2022-08-01T14:41:39.543Z,94998.38
2022-08-01T14:44:14.669Z,94999.28
2022-08-01T14:47:01.566Z,94996.78
2022-08-01T14:49:49.852Z,94995.22
2022-08-01T14:52:36.545Z,95004.88
2022-08-01T14:55:17.539Z,95007.47
2022-08-01T14:58:04.573Z,95011.84
2022-08-01T15:00:37.695Z,95017.94
2022-08-01T15:03:24.558Z,95015.41
2022-08-01T15:05:57.654Z,95022.41
2022-08-01T15:08:44.553Z,95013.75
2022-08-01T15:11:17.869Z,95011.16
2022-08-01T15:14:24.552Z,95016.56
2022-08-01T15:17:04.586Z,95017.38
2022-08-01T15:19:58.576Z,95015.81
2022-08-01T15:22:45.541Z,95024.44
2022-08-01T15:25:25.562Z,95019.16
2022-08-01T15:28:34.591Z,95012.34
2022-08-01T15:31:21.570Z,95014.94
2022-08-01T15:34:08.557Z,95006.31
2022-08-01T15:37:02.577Z,95011.50
2022-08-01T15:39:49.574Z,95012.53
2022-08-01T15:42:26.979Z,95015.88
2022-08-01T15:45:37.378Z,95016.06
2022-08-01T15:48:14.574Z,95016.06
2022-08-01T15:51:08.577Z,95004.91
2022-08-01T15:53:55.572Z,95011.88
2022-08-01T15:56:28.698Z,95010.13
2022-08-01T15:59:15.565Z,95014.56
2022-08-01T16:01:51.219Z,95013.63
2022-08-01T16:04:38.957Z,95011.13
2022-08-01T16:07:12.999Z,95007.69
2022-08-01T16:09:59.584Z,95008.63
2022-08-01T16:12:32.802Z,95010.38
2022-08-01T16:15:19.610Z,95017.34
2022-08-01T16:18:02.270Z,95010.47
2022-08-01T16:20:56.582Z,95013.16
2022-08-01T16:23:43.591Z,95020.09
2022-08-01T16:26:27.208Z,95014.91
2022-08-01T16:29:14.619Z,95016.69
2022-08-01T16:32:01.752Z,95020.19
2022-08-01T16:34:54.624Z,95022.06
2022-08-01T16:37:27.675Z,95023.81
2022-08-01T16:40:14.598Z,95025.56
2022-08-01T16:42:47.845Z,95025.56
2022-08-01T16:45:36.435Z,95024.75
2022-08-01T16:48:19.617Z,95017.78
2022-08-01T16:51:13.595Z,95023.91
2022-08-01T16:54:25.173Z,95017.03
2022-08-01T16:57:19.621Z,95022.22
2022-08-01T17:00:06.625Z,95012.75
2022-08-01T17:02:41.806Z,95022.22
2022-08-01T17:05:29.630Z,95012.75
2022-08-01T17:08:02.757Z,95016.19
2022-08-01T17:10:49.645Z,95022.22
2022-08-01T17:13:29.615Z,95030.84
2022-08-01T17:16:26.643Z,95024.06
2022-08-01T17:19:14.794Z,95027.53
2022-08-01T17:21:48.709Z,95025.84
2022-08-01T17:24:35.634Z,95033.72
2022-08-01T17:27:12.704Z,95031.09
2022-08-01T17:30:00.630Z,95032.22
2022-08-01T17:32:36.521Z,95035.75
2022-08-01T17:35:23.658Z,95034.16
2022-08-01T17:37:56.738Z,95034.22
2022-08-01T17:40:43.646Z,95039.63
2022-08-01T17:43:16.857Z,95038.03
2022-08-01T17:46:04.635Z,95035.69
2022-08-01T17:48:37.755Z,95042.81
2022-08-01T17:51:25.625Z,95042.03
2022-08-01T17:54:07.659Z,95038.81
2022-08-01T17:57:01.655Z,95038.09
2022-08-01T17:59:50.682Z,95046.22
2022-08-01T18:02:30.653Z,95041.28
2022-08-01T18:05:36.189Z,95044.22
2022-08-01T18:08:24.665Z,95047.16
2022-08-01T18:10:57.753Z,95048.22
2022-08-01T18:13:44.686Z,95056.25
2022-08-01T18:16:18.745Z,95055.50
2022-08-01T18:19:05.669Z,95060.13
2022-08-01T18:21:42.775Z,95053.50
2022-08-01T18:24:29.657Z,95052.06
2022-08-01T18:27:02.760Z,95060.03
2022-08-01T18:29:49.684Z,95058.56
2022-08-01T18:32:29.687Z,95057.97
2022-08-01T18:35:23.671Z,95064.25
2022-08-01T18:38:24.249Z,95067.00
2022-08-01T18:40:57.753Z,95066.31
2022-08-01T18:43:44.672Z,95075.28
2022-08-01T18:46:24.684Z,95075.50
2022-08-01T18:49:15.714Z,95080.00
2022-08-01T18:51:49.165Z,95078.41
2022-08-01T18:54:36.680Z,95075.09
2022-08-01T18:57:10.005Z,95089.91
2022-08-01T18:59:56.698Z,95089.16
2022-08-01T19:02:29.766Z,95092.66
2022-08-01T19:05:17.749Z,95096.16
2022-08-01T19:08:04.767Z,95096.31
2022-08-01T19:10:53.743Z,95099.06
2022-08-01T19:13:35.745Z,95101.72
2022-08-01T19:16:22.689Z,95097.53
2022-08-01T19:19:02.710Z,95099.28
2022-08-01T19:21:51.750Z,95105.53
2022-08-01T19:24:32.717Z,95112.41
2022-08-01T19:27:25.749Z,95117.75
2022-08-01T19:30:07.691Z,95112.78
2022-08-01T19:33:01.750Z,95117.19
2022-08-01T19:35:48.698Z,95115.59
2022-08-01T19:38:28.701Z,95116.59
2022-08-01T19:41:22.701Z,95116.75
2022-08-01T19:44:13.748Z,95125.59
2022-08-01T19:46:47.884Z,95127.56
2022-08-01T19:49:34.796Z,95133.81
2022-08-01T19:52:09.892Z,95131.44
2022-08-01T19:54:57.751Z,95135.91
2022-08-01T19:57:45.398Z,95142.16
2022-08-01T20:00:39.747Z,95142.47
2022-08-01T20:03:35.826Z,95139.25
2022-08-01T20:06:24.372Z,95133.59
2022-08-01T20:09:00.854Z,95140.84
2022-08-01T20:11:55.757Z,95138.44
2022-08-01T20:14:37.748Z,95136.91
2022-08-01T20:17:26.719Z,95140.63
2022-08-01T20:20:06.725Z,95138.25
2022-08-01T20:23:02.750Z,95139.56
2022-08-01T20:25:51.834Z,95138.16
2022-08-01T20:28:29.883Z,95135.03
2022-08-01T20:31:16.753Z,95141.31
2022-08-01T20:33:54.853Z,95139.78
2022-08-01T20:36:42.745Z,95151.09
2022-08-01T20:39:28.725Z,95149.59
2022-08-01T20:42:15.771Z,95148.91
2022-08-01T20:44:49.887Z,95149.13
2022-08-01T20:47:39.749Z,95149.38
2022-08-01T20:50:52.688Z,95151.28
2022-08-01T20:53:46.744Z,95147.19
2022-08-01T20:56:26.919Z,95146.41
2022-08-01T20:59:55.304Z,95145.72
2022-08-01T21:02:47.951Z,95146.75
2022-08-01T21:05:37.749Z,95148.56
2022-08-01T21:08:29.779Z,95148.63
2022-08-01T21:11:32.827Z,95156.47
2022-08-01T21:14:27.845Z,95157.34
2022-08-01T21:17:33.915Z,95161.69
2022-08-01T21:20:12.911Z,95168.59
2022-08-01T21:23:09.779Z,95165.22
2022-08-01T21:25:44.422Z,95164.44
2022-08-01T21:28:32.827Z,95162.69
2022-08-01T21:31:05.886Z,95160.09
2022-08-01T21:34:03.619Z,95159.31
2022-08-01T21:36:59.775Z,95156.72
2022-08-01T21:39:49.763Z,95154.19
2022-08-01T21:42:23.039Z,95156.78
2022-08-01T21:45:10.816Z,95168.78
2022-08-01T21:47:44.070Z,95162.72
2022-08-01T21:50:33.639Z,95167.00
2022-08-01T21:53:38.300Z,95166.97
2022-08-01T21:57:04.828Z,95168.66
2022-08-01T21:59:47.774Z,95172.13
2022-08-01T22:02:43.861Z,95163.59
2022-08-01T22:05:23.781Z,95168.81
2022-08-01T22:08:36.857Z,95169.78
2022-08-01T22:11:14.913Z,95159.50
2022-08-01T22:14:12.818Z,95157.91
2022-08-01T22:16:49.085Z,95157.94
2022-08-01T22:19:44.848Z,95158.88
2022-08-01T22:22:50.744Z,95162.34
2022-08-01T22:25:42.836Z,95159.88
2022-08-01T22:28:36.831Z,95159.06
2022-08-01T22:31:24.825Z,95165.97
2022-08-01T22:33:58.947Z,95160.81
2022-08-01T22:36:45.889Z,95165.13
2022-08-01T22:39:32.872Z,95157.44
2022-08-01T22:42:19.844Z,95160.13
2022-08-01T22:45:17.865Z,95168.75
2022-08-01T22:48:23.869Z,95161.06
2022-08-01T22:51:05.192Z,95159.34
2022-08-01T22:54:03.850Z,95156.03
2022-08-01T22:56:49.860Z,95161.25
2022-08-01T22:59:42.925Z,95159.63
2022-08-01T23:02:21.057Z,95158.00
2022-08-01T23:05:13.925Z,95163.28
2022-08-01T23:07:53.976Z,95154.69
2022-08-01T23:10:42.933Z,95158.19
2022-08-01T23:13:24.878Z,95152.06
2022-08-01T23:16:18.938Z,95160.66
2022-08-01T23:19:06.874Z,95161.47
2022-08-01T23:21:42.070Z,95163.19
2022-08-01T23:24:29.901Z,95163.97
2022-08-01T23:28:03.875Z,95163.03
2022-08-01T23:30:35.872Z,95163.88
2022-08-01T23:33:09.926Z,95163.88
2022-08-01T23:36:01.895Z,95166.47
2022-08-01T23:38:35.146Z,95167.28
2022-08-01T23:41:21.895Z,95165.63
2022-08-01T23:43:54.939Z,95173.31
2022-08-01T23:46:41.890Z,95171.63
2022-08-01T23:49:15.044Z,95164.72
2022-08-01T23:52:01.890Z,95161.28
2022-08-01T23:54:41.898Z,95166.47
2022-08-01T23:57:41.228Z,95173.31
